Balearic Gas — OWAP2 — position and weather

sailwx.info

Track history (hours):
 
Tides and Currents Weather Stations Pressure Air Temp Water Temp Dewpoint Dewpoint Depression Visibility Wind Speed Wind Dir Waves Ship Positions

Balearic Gas

Last reported at 2017-Nov-04 14:53 UTC. Time now 2017-Nov-18 03:03 UTC.
Position N 36°00' W 005°18'.
Warning: this ship's position is 13 days out of date.

Length 160 m; draft 8.7 m.

Type: Ship (hazmat cat D). MMSI: 219674000.

Date/timePositionNaut miles runAvg speedWind from/ knotsBaromVisibWave heightAir tempDewpointWater temp
2017-Nov-04 14:53N 36°00' W 005°18'  
2017-Oct-30 05:50N 36°19' W 008°24'615.9
2017-Oct-30 05:27N 36°21' W 008°31'816.0
2017-Oct-30 04:58N 36°22' W 008°40'716.1
2017-Oct-30 04:30N 36°24' W 008°49'815.8
2017-Oct-30 04:00N 36°26' W 008°59'815.9
2017-Oct-30 03:30N 36°28' W 009°09'816.1
2017-Oct-30 03:00N 36°29' W 009°18'815.7
2017-Oct-30 02:30N 36°35' W 009°25'816.4
2017-Oct-30 02:00N 36°41' W 009°32'815.8
2017-Oct-30 01:30N 36°48' W 009°38'816.1
2017-Oct-30 01:00N 36°55' W 009°40'816.5
2017-Oct-30 00:30N 37°03' W 009°43'816.6
2017-Oct-30 00:00N 37°11' W 009°45'816.3
2017-Oct-29 23:30N 37°19' W 009°48'816.2
2017-Oct-29 23:00N 37°27' W 009°51'816.3
2017-Oct-29 22:30N 37°35' W 009°53'816.1
2017-Oct-29 22:00N 37°43' W 009°55'816.0
2017-Oct-29 21:30N 37°51' W 009°57'816.2
2017-Oct-29 21:00N 37°59' W 009°59'816.2
2017-Oct-29 20:30N 38°06' W 010°02'816.1
2017-Oct-29 20:01N 38°14' W 010°04'816.2
2017-Oct-29 19:30N 38°22' W 010°06'816.6
2017-Oct-29 19:00N 38°30' W 010°09'816.3
2017-Oct-29 18:30N 38°38' W 010°10'816.1
2017-Oct-29 18:00N 38°46' W 010°12'816.1
2017-Oct-29 17:30N 38°54' W 010°12'816.0
2017-Oct-29 17:00N 39°02' W 010°12'816.3
2017-Oct-29 16:30N 39°11' W 010°12'816.4
2017-Oct-29 16:00N 39°19' W 010°12'816.3
2017-Oct-29 15:30N 39°27' W 010°12'816.2
2017-Oct-29 15:00N 39°35' W 010°12'816.2
2017-Oct-29 14:30N 39°43' W 010°12'816.3
2017-Oct-29 14:00N 39°51' W 010°13'816.1
2017-Oct-29 13:30N 39°59' W 010°13'816.4
2017-Oct-29 13:00N 40°07' W 010°13'1816.6
2017-Oct-29 11:57N 40°25' W 010°13'716.3
2017-Oct-29 11:30N 40°32' W 010°13'816.1
2017-Oct-29 11:00N 40°40' W 010°12'816.1
2017-Oct-29 10:29N 40°49' W 010°12'815.9
2017-Oct-29 10:00N 40°57' W 010°12'815.8
2017-Oct-29 09:30N 41°04' W 010°13'35715.4
2017-Oct-28 10:13N 46°43' W 007°34'716.5
2017-Oct-28 09:46N 46°49' W 007°28'516.0
2017-Oct-28 09:26N 46°54' W 007°25'915.6
2017-Oct-28 08:52N 47°02' W 007°18'615.6
2017-Oct-28 08:28N 47°07' W 007°14'715.8
2017-Oct-28 08:00N 47°14' W 007°09'916.0
2017-Oct-28 07:27N 47°21' W 007°03'716.0
2017-Oct-28 07:00N 47°28' W 006°58'815.5
2017-Oct-28 06:30N 47°35' W 006°52'815.4
2017-Oct-28 06:00N 47°41' W 006°47'1315.7
2017-Oct-28 05:11N 47°53' W 006°37'315.9
2017-Oct-28 05:00N 47°55' W 006°35'915.8
2017-Oct-28 04:27N 48°03' W 006°29'715.8
2017-Oct-28 03:59N 48°09' W 006°24'916.2
2017-Oct-28 03:27N 48°17' W 006°18'716.2
2017-Oct-28 03:00N 48°23' W 006°12'816.2
2017-Oct-28 02:31N 48°30' W 006°07'816.4
2017-Oct-28 02:01N 48°37' W 006°01'816.4
2017-Oct-28 01:31N 48°45' W 005°55'816.4
2017-Oct-28 01:01N 48°52' W 005°49'815.9
2017-Oct-28 00:31N 48°57' W 005°39'816.1
2017-Oct-28 00:01N 49°01' W 005°29'815.5
2017-Oct-27 23:31N 49°05' W 005°19'713.7
2017-Oct-27 23:00N 49°08' W 005°10'713.4
2017-Oct-27 22:30N 49°12' W 005°01'815.4
2017-Oct-27 22:00N 49°16' W 004°51'815.3
2017-Oct-27 21:31N 49°19' W 004°41'815.3
2017-Oct-27 21:00N 49°23' W 004°30'815.2
2017-Oct-27 20:30N 49°27' W 004°20'815.4
2017-Oct-27 20:00N 49°31' W 004°10'915.6
2017-Oct-27 19:26N 49°35' W 003°58'1115.9
2017-Oct-27 18:46N 49°40' W 003°44'816.2
2017-Oct-27 18:15N 49°44' W 003°33'816.3
2017-Oct-27 17:47N 49°48' W 003°22'516.6
2017-Oct-27 17:30N 49°50' W 003°16'816.7
2017-Oct-27 17:00N 49°54' W 003°04'816.7
2017-Oct-27 16:30N 49°58' W 002°53'816.1
2017-Oct-27 15:59N 50°02' W 002°41'816.4
2017-Oct-27 15:30N 50°05' W 002°30'6214.0
2017-Oct-27 11:05N 50°31' W 001°02'414.6
2017-Oct-27 10:47N 50°35' W 000°59'413.8
2017-Oct-27 10:30N 50°39' W 000°57'510.6
2017-Oct-27 10:00N 50°43' W 001°01'713.9
2017-Oct-27 09:30N 50°46' W 001°12'5 9.5
2017-Oct-27 09:00N 50°49' W 001°18'  
Track history (hours):
 
Tides and Currents Weather Stations Pressure Air Temp Water Temp Dewpoint Dewpoint Depression Visibility Wind Speed Wind Dir Waves Ship Positions

Balearic Gas

Last reported at 2017-Nov-04 14:53 UTC. Time now 2017-Nov-18 03:03 UTC.
Position N 36°00' W 005°18'.
Warning: this ship's position is 13 days out of date.

Length 160 m; draft 8.7 m.

Type: Ship (hazmat cat D). MMSI: 219674000.

Date/timePositionNaut miles runAvg speedWind from/ knotsBaromVisibWave heightAir tempDewpointWater temp
2017-Nov-04 14:53N 36°00' W 005°18'  
2017-Oct-30 05:50N 36°19' W 008°24'615.9
2017-Oct-30 05:27N 36°21' W 008°31'816.0
2017-Oct-30 04:58N 36°22' W 008°40'716.1
2017-Oct-30 04:30N 36°24' W 008°49'815.8
2017-Oct-30 04:00N 36°26' W 008°59'815.9
2017-Oct-30 03:30N 36°28' W 009°09'816.1
2017-Oct-30 03:00N 36°29' W 009°18'815.7
2017-Oct-30 02:30N 36°35' W 009°25'816.4
2017-Oct-30 02:00N 36°41' W 009°32'815.8
2017-Oct-30 01:30N 36°48' W 009°38'816.1
2017-Oct-30 01:00N 36°55' W 009°40'816.5
2017-Oct-30 00:30N 37°03' W 009°43'816.6
2017-Oct-30 00:00N 37°11' W 009°45'816.3
2017-Oct-29 23:30N 37°19' W 009°48'816.2
2017-Oct-29 23:00N 37°27' W 009°51'816.3
2017-Oct-29 22:30N 37°35' W 009°53'816.1
2017-Oct-29 22:00N 37°43' W 009°55'816.0
2017-Oct-29 21:30N 37°51' W 009°57'816.2
2017-Oct-29 21:00N 37°59' W 009°59'816.2
2017-Oct-29 20:30N 38°06' W 010°02'816.1
2017-Oct-29 20:01N 38°14' W 010°04'816.2
2017-Oct-29 19:30N 38°22' W 010°06'816.6
2017-Oct-29 19:00N 38°30' W 010°09'816.3
2017-Oct-29 18:30N 38°38' W 010°10'816.1
2017-Oct-29 18:00N 38°46' W 010°12'816.1
2017-Oct-29 17:30N 38°54' W 010°12'816.0
2017-Oct-29 17:00N 39°02' W 010°12'816.3
2017-Oct-29 16:30N 39°11' W 010°12'816.4
2017-Oct-29 16:00N 39°19' W 010°12'816.3
2017-Oct-29 15:30N 39°27' W 010°12'816.2
2017-Oct-29 15:00N 39°35' W 010°12'816.2
2017-Oct-29 14:30N 39°43' W 010°12'816.3
2017-Oct-29 14:00N 39°51' W 010°13'816.1
2017-Oct-29 13:30N 39°59' W 010°13'816.4
2017-Oct-29 13:00N 40°07' W 010°13'1816.6
2017-Oct-29 11:57N 40°25' W 010°13'716.3
2017-Oct-29 11:30N 40°32' W 010°13'816.1
2017-Oct-29 11:00N 40°40' W 010°12'816.1
2017-Oct-29 10:29N 40°49' W 010°12'815.9
2017-Oct-29 10:00N 40°57' W 010°12'815.8
2017-Oct-29 09:30N 41°04' W 010°13'35715.4
2017-Oct-28 10:13N 46°43' W 007°34'716.5
2017-Oct-28 09:46N 46°49' W 007°28'516.0
2017-Oct-28 09:26N 46°54' W 007°25'915.6
2017-Oct-28 08:52N 47°02' W 007°18'615.6
2017-Oct-28 08:28N 47°07' W 007°14'715.8
2017-Oct-28 08:00N 47°14' W 007°09'916.0
2017-Oct-28 07:27N 47°21' W 007°03'716.0
2017-Oct-28 07:00N 47°28' W 006°58'815.5
2017-Oct-28 06:30N 47°35' W 006°52'815.4
2017-Oct-28 06:00N 47°41' W 006°47'1315.7
2017-Oct-28 05:11N 47°53' W 006°37'315.9
2017-Oct-28 05:00N 47°55' W 006°35'915.8
2017-Oct-28 04:27N 48°03' W 006°29'715.8
2017-Oct-28 03:59N 48°09' W 006°24'916.2
2017-Oct-28 03:27N 48°17' W 006°18'716.2
2017-Oct-28 03:00N 48°23' W 006°12'816.2
2017-Oct-28 02:31N 48°30' W 006°07'816.4
2017-Oct-28 02:01N 48°37' W 006°01'816.4
2017-Oct-28 01:31N 48°45' W 005°55'816.4
2017-Oct-28 01:01N 48°52' W 005°49'815.9
2017-Oct-28 00:31N 48°57' W 005°39'816.1
2017-Oct-28 00:01N 49°01' W 005°29'815.5
2017-Oct-27 23:31N 49°05' W 005°19'713.7
2017-Oct-27 23:00N 49°08' W 005°10'713.4
2017-Oct-27 22:30N 49°12' W 005°01'815.4
2017-Oct-27 22:00N 49°16' W 004°51'815.3
2017-Oct-27 21:31N 49°19' W 004°41'815.3
2017-Oct-27 21:00N 49°23' W 004°30'815.2
2017-Oct-27 20:30N 49°27' W 004°20'815.4
2017-Oct-27 20:00N 49°31' W 004°10'915.6
2017-Oct-27 19:26N 49°35' W 003°58'1115.9
2017-Oct-27 18:46N 49°40' W 003°44'816.2
2017-Oct-27 18:15N 49°44' W 003°33'816.3
2017-Oct-27 17:47N 49°48' W 003°22'516.6
2017-Oct-27 17:30N 49°50' W 003°16'816.7
2017-Oct-27 17:00N 49°54' W 003°04'816.7
2017-Oct-27 16:30N 49°58' W 002°53'816.1
2017-Oct-27 15:59N 50°02' W 002°41'816.4
2017-Oct-27 15:30N 50°05' W 002°30'6214.0
2017-Oct-27 11:05N 50°31' W 001°02'414.6
2017-Oct-27 10:47N 50°35' W 000°59'413.8
2017-Oct-27 10:30N 50°39' W 000°57'510.6
2017-Oct-27 10:00N 50°43' W 001°01'713.9
2017-Oct-27 09:30N 50°46' W 001°12'5 9.5
2017-Oct-27 09:00N 50°49' W 001°18'  

Dump ship's entire track history